Impacts METAR Board
IDs:

KMCO - Orlando Intl, FL, US

Updated at: 0300 UTC 12 Dec 2018
Potential Impact None Slight Moderate High
Time 11/15Z 11/16Z 11/17Z 11/18Z 11/19Z 11/20Z 11/21Z 11/22Z 11/23Z 12/00Z 12/01Z 12/02Z 12/03Z
Temp50 50 53 52 55 56 57 55 51 50 50 49 47
Dewpt37 38 38 39 40 39 40 40 40 40 40 42 41
Altim30.32 30.32 30.30 30.28 30.25 30.25 30.25 30.26 30.28 30.30 30.30 30.32 30.32
VIS10 10 10 10 10 10 10 10 10 10 10 10 10
CIG-- -- -- 31 -- -- -- -- -- -- -- -- --
CoverSCTSCTSCTBKNSCTFEWFEWFEWCLRCLRCLRCLRCLR
FltCatVFRVFRVFRVFRVFRVFRVFRVFRVFRVFRVFRVFRVFR
WX--------------------------
WDir310310330340350340330360360100300330
WSpd13 16 15 12 12 11 5 7 6 4 0 3 4
WGst-- 21 19 -- 17 -- -- -- -- -- -- -- --
Raw hourly METARs
KMCO 111453Z 31013KT 10SM SCT020 10/03 A3032 RMK AO2 SLP268 T01000028 51025
KMCO 111604Z 31016G21KT 10SM SCT026 10/03 A3032 RMK AO2 T01000033
KMCO 111653Z 33015G19KT 10SM SCT029 12/03 A3030 RMK AO2 SLP259 T01170033
KMCO 111753Z 34012KT 10SM BKN031 11/04 A3028 RMK AO2 SLP254 T01110039 10122 20067 58013
KMCO 111853Z 35012G17KT 10SM SCT031 13/04 A3025 RMK AO2 SLP242 T01280044
KMCO 111953Z 34011KT 10SM FEW033 13/04 A3025 RMK AO2 SLP242 T01330039
KMCO 112053Z 33005KT 10SM FEW032 14/04 A3025 RMK AO2 SLP242 T01390044 55012
KMCO 112153Z 36007KT 10SM FEW032 13/04 A3026 RMK AO2 SLP247 T01280044
KMCO 112253Z 36006KT 10SM CLR 11/04 A3028 RMK AO2 SLP253 T01060044
KMCO 112353Z 01004KT 10SM CLR 10/04 A3030 RMK AO2 SLP259 T01000044 10139 20094 53017
KMCO 120053Z 00000KT 10SM CLR 10/04 A3030 RMK AO2 SLP260 T01000044
KMCO 120153Z 30003KT 10SM CLR 09/06 A3032 RMK AO2 SLP265 T00940056
KMCO 120253Z 33004KT 10SM CLR 08/05 A3032 RMK AO2 SLP265 T00830050 51006



Page loaded:  03:00 UTC  |   07:00 PM Pacific  |   08:00 PM Mountain  |   09:00 PM Central  |   10:00 PM Eastern

 

ADVISORIES

FORECASTS

FORECASTS

OBSERVATIONS

USER TOOLS

ABOUT US